CheckWX is a tool to help pilots better visualize weather data.  It is not intended as a substitute for an official pre-flight weather briefing.

08:04:24 UTC

LFSO TAF
Nancy-Ochey (BA 133) Air Base Airport
Nancy/Ochey, France
TAF AMD LFSO 190610Z 1906/2003 35004KT 0200 FZFG VV/// BECMG 1907/1909 1200 BR BKN002 BECMG 1909/1910 4000 BR BKN010 BECMG 1910/1912 8000 NSW BKN025

Mar-19@
06:00 UTC

Mar-19 @ 06:00 UTC

Mar-19@
07:00 UTC

Mar-19 @ 07:00 UTC

TAF AMD LFSO 190610Z 1906/2003 35004KT 0200 FZFG VV///

Expired

Wind
  • 350° at 4 KTS
Conditions
Freezing Fog

Mar-19@
07:00 UTC

Mar-19 @ 07:00 UTC

Mar-19@
09:00 UTC

Mar-19 @ 09:00 UTC

BECMG 1907/1909 1200 BR BKN002

Becoming

Becoming Conditions expected by Tue, Mar 19, 2019 @ 09:00 UTC

Wind
  • 350° at 4 KTS
Conditions
Mist
Cloud Levels
  • Broken at 200' AGL

Mar-19@
09:00 UTC

Mar-19 @ 09:00 UTC

Mar-19@
10:00 UTC

Mar-19 @ 10:00 UTC

BECMG 1909/1910 4000 BR BKN010

Becoming

Becoming Conditions expected by Tue, Mar 19, 2019 @ 10:00 UTC

Wind
  • 350° at 4 KTS
Conditions
Mist
Cloud Levels
  • Broken at 1,000' AGL

Mar-19@
10:00 UTC

Mar-19 @ 10:00 UTC

Mar-20@
03:00 UTC

Mar-20 @ 03:00 UTC

BECMG 1910/1912 8000 NSW BKN025

Becoming

Becoming Conditions expected by Tue, Mar 19, 2019 @ 12:00 UTC

Wind
  • 350° at 4 KTS
Conditions
No significant weather
Cloud Levels
  • Broken at 2,500' AGL